This is the latest recevied weather packets stored in our database for station/object K8ZAS. If no packets are shown the sender has not sent any weather packets the latest 10 day(s).
| Time | Temp. | Humidity | Pressure | Rain* | Wind** | Luminosity | Snow |
|---|---|---|---|---|---|---|---|
| 1777603839 | 8.89° C | 34% | 1019.1 hPa | 0 mm | - | 0 W/m² | - |
| 1777602616 | 10° C | 30% | 1018.8 hPa | 0 mm | - | 1 W/m² | - |
| 1777598438 | 12.22° C | 24% | 1018.2 hPa | 0 mm | - | 77 W/m² | - |
| 1777595419 | 12.78° C | 24% | 1018.1 hPa | 0 mm | - | 158 W/m² | - |
| 1777594219 | 12.22° C | 25% | 1018.1 hPa | 0 mm | - | 85 W/m² | - |
| 1777591820 | 12.78° C | 26% | 1018.2 hPa | 0 mm | - | 462 W/m² | - |
| 1777590618 | 13.89° C | 25% | 1018.2 hPa | 0 mm | - | 620 W/m² | - |
| 1777586419 | 12.22° C | 27% | 1018.8 hPa | 0 mm | - | 790 W/m² | - |
| 1777582817 | 12.22° C | 30% | 1019.4 hPa | 0 mm | - | 978 W/m² | - |
| 1777582217 | 11.67° C | 30% | 1019.5 hPa | 0 mm | - | 390 W/m² | - |
| 1777579818 | 11.11° C | 31% | 1019.6 hPa | 0 mm | - | 447 W/m² | - |
| 1777576219 | 11.67° C | 29% | 1019.8 hPa | 0 mm | - | 558 W/m² | - |
| 1777574420 | 10.56° C | 31% | 1020.2 hPa | 0 mm | - | 451 W/m² | - |
| 1777570818 | 11.11° C | 31% | 1020.6 hPa | 0 mm | - | 871 W/m² | - |
| 1777569618 | 11.11° C | 33% | 1020.9 hPa | 0 mm | - | 1154 W/m² | - |
| 1777566019 | 9.44° C | 43% | 1021.3 hPa | 0 mm | - | 738 W/m² | - |
| 1777560018 | 6.67° C | 58% | 1022 hPa | 0 mm | - | 427 W/m² | - |
| 1777551027 | 3.33° C | 86% | 1021 hPa | 0 mm | - | 3 W/m² | - |
| 1777550467 | 2.78° C | 86% | 1020.9 hPa | 0 mm | - | 1 W/m² | - |
| 1777549228 | 2.78° C | 88% | 1020.8 hPa | 0 mm | - | 0 W/m² | - |
| 1777546228 | 2.78° C | 89% | 1021 hPa | 0 mm | - | 0 W/m² | - |
| 1777545628 | 2.78° C | 90% | 1021.1 hPa | 0 mm | - | 0 W/m² | - |
| 1777544428 | 2.78° C | 91% | 1021.1 hPa | 0 mm | - | 0 W/m² | - |
| 1777542629 | 2.78° C | 90% | 1021.2 hPa | 0 mm | - | 0 W/m² | - |
| 1777542029 | 2.78° C | 90% | 1021.1 hPa | 0 mm | - | 0 W/m² | - |
* Rain latest hour (hover to see other rain measurements)
** Current wind speed in m/s (hover to see current wind gust speed)